Time;durP1;ratioP1;P1;durP2;ratioP2;P2;SDS_P1;SDS_P2;PMS_P1;PMS_P2;Temp;Humidity;BMP_temperature;BMP_pressure;BME280_temperature;BME280_humidity;BME280_pressure;Samples;Min_cycle;Max_cycle;Signal;HPM_P1;HPM_P2
2022/08/09 00:00:22;;;;;;;;;;;26.00;38.40;;;;;;1530940;75;1546;-60
2022/08/09 00:02:24;;;;;;;;;;;26.00;38.40;;;;;;1533841;76;1152;-59
2022/08/09 00:04:26;;;;;;;;;;;26.00;38.40;;;;;;1543180;76;820;-59
2022/08/09 00:06:28;;;;;;;;;;;26.00;38.40;;;;;;1535813;75;796;-59
2022/08/09 00:08:30;;;;;;;;;;;26.00;38.30;;;;;;1540392;76;754;-60
2022/08/09 00:10:32;;;;;;;;;;;26.00;38.40;;;;;;1538989;76;769;-60
2022/08/09 00:12:33;;;;;;;;;;;26.00;38.30;;;;;;1534574;76;1927;-60
2022/08/09 00:14:35;;;;;;;;;;;26.00;38.30;;;;;;1535917;75;668;-61
2022/08/09 00:16:37;;;;;;;;;;;26.00;38.40;;;;;;1534860;76;755;-59
2022/08/09 00:18:39;;;;;;;;;;;26.00;38.30;;;;;;1534442;76;754;-58
2022/08/09 00:20:41;;;;;;;;;;;25.90;37.80;;;;;;1539619;76;757;-57
2022/08/09 00:22:43;;;;;;;;;;;26.00;38.40;;;;;;1531284;76;1214;-60
2022/08/09 00:24:45;;;;;;;;;;;26.00;38.40;;;;;;1527955;75;781;-58
2022/08/09 00:26:47;;;;;;;;;;;25.90;37.80;;;;;;1530105;76;753;-57
2022/08/09 00:28:49;;;;;;;;;;;25.90;37.80;;;;;;1528462;76;722;-58
2022/08/09 00:30:51;;;;;;;;;;;25.90;37.80;;;;;;1537289;76;691;-58
2022/08/09 00:32:53;;;;;;;;;;;26.00;38.30;;;;;;1533056;75;1930;-57
2022/08/09 00:34:55;;;;;;;;;;;25.90;37.80;;;;;;1530667;76;781;-57
2022/08/09 00:36:57;;;;;;;;;;;26.00;38.40;;;;;;1534599;75;806;-57
2022/08/09 00:38:59;;;;;;;;;;;25.90;37.80;;;;;;1537711;75;676;-57
2022/08/09 00:41:00;;;;;;;;;;;25.90;37.80;;;;;;1540627;76;727;-59
2022/08/09 00:43:02;;;;;;;;;;;26.00;38.30;;;;;;1541866;76;1133;-57
2022/08/09 00:45:06;;;;;;;;;;;26.00;38.30;;;;;;1519693;78;835;-59
2022/08/09 00:47:08;;;;;;;;;;;26.00;38.20;;;;;;1533630;76;744;-59
2022/08/09 00:49:10;;;;;;;;;;;26.00;38.20;;;;;;1521173;78;737;-57
2022/08/09 00:51:12;;;;;;;;;;;25.90;37.70;;;;;;1494821;77;759;-58
2022/08/09 00:53:14;;;;;;;;;;;26.00;38.30;;;;;;1522349;76;1956;-57
2022/08/09 00:55:16;;;;;;;;;;;26.00;38.20;;;;;;1541942;76;753;-60
2022/08/09 00:57:17;;;;;;;;;;;25.90;37.60;;;;;;1539549;76;1646;-58
2022/08/09 00:59:19;;;;;;;;;;;26.00;38.10;;;;;;1532843;76;780;-58
2022/08/09 01:01:22;;;;;;;;;;;25.90;37.60;;;;;;1506148;78;675;-60
2022/08/09 01:03:42;;;;;;;;;;;25.90;37.50;;;;;;1522621;76;1114;-60
2022/08/09 01:05:46;;;;;;;;;;;26.00;38.10;;;;;;1517965;78;773;-60
2022/08/09 01:07:52;;;;;;;;;;;25.90;37.60;;;;;;1516345;78;1377;-58
2022/08/09 01:09:58;;;;;;;;;;;25.90;37.60;;;;;;1524954;77;819;-59
2022/08/09 01:12:01;;;;;;;;;;;25.90;37.50;;;;;;1515017;77;1934;-59
2022/08/09 01:14:04;;;;;;;;;;;25.90;37.60;;;;;;1517923;77;1074;-61
2022/08/09 01:16:06;;;;;;;;;;;25.90;37.60;;;;;;1508529;78;767;-60
2022/08/09 01:18:08;;;;;;;;;;;25.90;37.50;;;;;;1506315;77;799;-59
2022/08/09 01:20:11;;;;;;;;;;;25.90;37.50;;;;;;1513125;77;799;-59
2022/08/09 01:22:31;;;;;;;;;;;25.90;37.50;;;;;;1515042;76;1932;-59
2022/08/09 01:24:44;;;;;;;;;;;25.90;37.40;;;;;;1545036;75;743;-59
2022/08/09 01:27:00;;;;;;;;;;;25.90;37.40;;;;;;1539328;76;2178;-58
2022/08/09 01:29:02;;;;;;;;;;;25.90;37.50;;;;;;1520035;78;760;-58
2022/08/09 01:31:04;;;;;;;;;;;25.90;37.50;;;;;;1509801;77;756;-59
2022/08/09 01:33:06;;;;;;;;;;;25.90;37.50;;;;;;1532610;76;1946;-60
2022/08/09 01:35:19;;;;;;;;;;;25.90;37.50;;;;;;1519240;76;751;-61
2022/08/09 01:37:21;;;;;;;;;;;25.90;37.50;;;;;;1519239;76;1156;-58
2022/08/09 01:39:23;;;;;;;;;;;25.90;37.40;;;;;;1530507;77;785;-58
2022/08/09 01:41:31;;;;;;;;;;;25.90;37.50;;;;;;1582517;74;781;-59
2022/08/09 01:43:33;;;;;;;;;;;25.80;37.40;;;;;;1579980;74;1187;-59
2022/08/09 01:45:35;;;;;;;;;;;25.90;37.50;;;;;;1577943;74;684;-59
2022/08/09 01:47:37;;;;;;;;;;;25.90;37.30;;;;;;1568241;74;699;-58
2022/08/09 01:49:39;;;;;;;;;;;25.80;37.40;;;;;;1572038;74;813;-60
2022/08/09 01:51:45;;;;;;;;;;;25.90;37.40;;;;;;1548891;74;227334;-68
2022/08/09 01:53:47;;;;;;;;;;;25.90;37.40;;;;;;1489737;78;1940;-69
2022/08/09 01:55:49;;;;;;;;;;;25.80;37.30;;;;;;1508240;77;790;-69
2022/08/09 01:57:51;;;;;;;;;;;25.80;37.30;;;;;;1509132;77;747;-69
2022/08/09 01:59:53;;;;;;;;;;;25.80;37.30;;;;;;1512917;77;805;-68
2022/08/09 02:01:55;;;;;;;;;;;25.80;37.30;;;;;;1495477;77;1240;-69
2022/08/09 02:03:57;;;;;;;;;;;25.80;37.30;;;;;;1483780;78;735;-69
2022/08/09 02:05:58;;;;;;;;;;;25.80;37.30;;;;;;1484293;78;738;-69
2022/08/09 02:08:02;;;;;;;;;;;25.80;37.30;;;;;;1483838;78;807;-69
2022/08/09 02:10:05;;;;;;;;;;;25.80;37.30;;;;;;1491735;78;738;-69
2022/08/09 02:12:07;;;;;;;;;;;25.80;37.30;;;;;;1481183;78;1136;-68
2022/08/09 02:14:09;;;;;;;;;;;25.70;37.30;;;;;;1483576;78;1927;-68
2022/08/09 02:16:11;;;;;;;;;;;25.80;37.30;;;;;;1483996;78;694;-69
2022/08/09 02:18:13;;;;;;;;;;;25.70;37.30;;;;;;1484257;78;735;-69
2022/08/09 02:20:15;;;;;;;;;;;25.80;37.20;;;;;;1483415;78;760;-68
2022/08/09 02:22:22;;;;;;;;;;;25.70;37.30;;;;;;1488211;78;1177;-69
2022/08/09 02:24:24;;;;;;;;;;;25.70;37.20;;;;;;1492703;78;732;-69
2022/08/09 02:26:27;;;;;;;;;;;25.70;37.20;;;;;;1483376;78;737;-69
2022/08/09 02:28:34;;;;;;;;;;;25.70;37.30;;;;;;1484842;78;770;-68
2022/08/09 02:30:37;;;;;;;;;;;25.80;37.30;;;;;;1482862;78;736;-69
2022/08/09 02:32:41;;;;;;;;;;;25.70;37.20;;;;;;1483251;78;1958;-69
2022/08/09 02:34:43;;;;;;;;;;;25.80;37.20;;;;;;1483776;78;712;-69
2022/08/09 02:36:46;;;;;;;;;;;25.70;37.20;;;;;;1494452;78;695;-69
2022/08/09 02:38:49;;;;;;;;;;;25.70;37.20;;;;;;1483957;78;714;-69
2022/08/09 02:40:52;;;;;;;;;;;25.70;37.20;;;;;;1483914;78;714;-69
2022/08/09 02:42:54;;;;;;;;;;;25.70;37.20;;;;;;1483764;78;720;-69
2022/08/09 02:45:00;;;;;;;;;;;25.70;37.20;;;;;;1483592;78;715;-68
2022/08/09 02:47:06;;;;;;;;;;;25.70;37.10;;;;;;1482489;78;1918;-69
2022/08/09 02:49:09;;;;;;;;;;;25.70;37.20;;;;;;1483816;78;1506;-69
2022/08/09 02:51:11;;;;;;;;;;;25.70;37.10;;;;;;1481201;78;1082;-69
2022/08/09 02:53:18;;;;;;;;;;;25.70;37.10;;;;;;1484139;78;1937;-69
2022/08/09 02:55:19;;;;;;;;;;;25.70;37.10;;;;;;1484664;78;751;-69
2022/08/09 02:57:21;;;;;;;;;;;25.70;37.10;;;;;;1482746;78;693;-69
2022/08/09 02:59:23;;;;;;;;;;;25.70;37.10;;;;;;1476001;78;663;-69
2022/08/09 03:01:25;;;;;;;;;;;25.70;37.10;;;;;;1480734;78;1141;-69
2022/08/09 03:03:27;;;;;;;;;;;25.70;37.10;;;;;;1483018;78;716;-68
2022/08/09 03:05:29;;;;;;;;;;;25.70;37.10;;;;;;1484029;78;661;-69
2022/08/09 03:07:31;;;;;;;;;;;25.70;37.10;;;;;;1483402;78;582;-69
2022/08/09 03:09:33;;;;;;;;;;;25.70;37.10;;;;;;1484019;78;779;-69
2022/08/09 03:11:35;;;;;;;;;;;25.70;37.10;;;;;;1483891;78;1153;-69
2022/08/09 03:13:37;;;;;;;;;;;25.70;37.10;;;;;;1477992;78;1931;-69
2022/08/09 03:15:39;;;;;;;;;;;25.70;37.10;;;;;;1484057;78;759;-68
2022/08/09 03:17:40;;;;;;;;;;;25.70;37.10;;;;;;1483693;78;818;-69
2022/08/09 03:19:42;;;;;;;;;;;25.70;37.10;;;;;;1480823;78;727;-69
2022/08/09 03:21:44;;;;;;;;;;;25.70;37.10;;;;;;1490013;78;1181;-69
2022/08/09 03:23:46;;;;;;;;;;;25.70;37.10;;;;;;1484137;78;733;-70
2022/08/09 03:25:48;;;;;;;;;;;25.70;37.10;;;;;;1478662;78;817;-67
2022/08/09 03:27:51;;;;;;;;;;;25.70;37.20;;;;;;1484148;78;815;-67
2022/08/09 03:29:53;;;;;;;;;;;25.70;37.20;;;;;;1482970;78;808;-68
2022/08/09 03:31:55;;;;;;;;;;;25.70;37.10;;;;;;1484850;78;1145;-71
2022/08/09 03:33:57;;;;;;;;;;;25.70;37.20;;;;;;1488199;78;1943;-71
2022/08/09 03:35:58;;;;;;;;;;;25.70;37.10;;;;;;1492788;78;750;-67
2022/08/09 03:38:00;;;;;;;;;;;25.60;37.30;;;;;;1489574;78;720;-67
2022/08/09 03:40:02;;;;;;;;;;;25.70;37.30;;;;;;1484201;78;833;-67
2022/08/09 03:42:04;;;;;;;;;;;25.70;37.30;;;;;;1483661;78;1141;-67
2022/08/09 03:44:06;;;;;;;;;;;25.70;37.30;;;;;;1477406;78;795;-66
2022/08/09 03:46:08;;;;;;;;;;;25.70;37.30;;;;;;1481441;78;1665;-67
2022/08/09 03:48:10;;;;;;;;;;;25.70;37.30;;;;;;1481058;78;739;-68
2022/08/09 03:50:12;;;;;;;;;;;25.70;37.30;;;;;;1497131;78;712;-67
2022/08/09 03:52:14;;;;;;;;;;;25.70;37.50;;;;;;1484822;78;1157;-66
2022/08/09 03:54:15;;;;;;;;;;;25.70;37.40;;;;;;1493424;78;1959;-67
2022/08/09 03:56:17;;;;;;;;;;;25.80;37.40;;;;;;1495461;78;800;-67
2022/08/09 03:58:20;;;;;;;;;;;25.80;37.40;;;;;;1495822;78;738;-66
2022/08/09 04:00:22;;;;;;;;;;;25.80;37.40;;;;;;1491737;78;895;-66
2022/08/09 04:02:27;;;;;;;;;;;25.80;37.50;;;;;;1494480;78;1140;-65
2022/08/09 04:04:28;;;;;;;;;;;25.70;37.40;;;;;;1485106;78;854;-66
2022/08/09 04:06:30;;;;;;;;;;;25.80;37.40;;;;;;1483986;78;720;-67
2022/08/09 04:08:32;;;;;;;;;;;25.70;37.50;;;;;;1484637;78;787;-67
2022/08/09 04:10:34;;;;;;;;;;;25.80;37.50;;;;;;1482724;78;680;-67
2022/08/09 04:12:43;;;;;;;;;;;25.80;37.50;;;;;;1487455;78;1137;-66
2022/08/09 04:14:44;;;;;;;;;;;25.80;37.60;;;;;;1495367;78;1923;-66
2022/08/09 04:16:46;;;;;;;;;;;25.80;37.60;;;;;;1488375;78;816;-66
2022/08/09 04:18:48;;;;;;;;;;;25.80;37.60;;;;;;1495008;78;716;-67
2022/08/09 04:20:50;;;;;;;;;;;25.80;37.60;;;;;;1485736;78;739;-66
2022/08/09 04:22:52;;;;;;;;;;;25.90;37.60;;;;;;1487601;78;1187;-66
2022/08/09 04:24:54;;;;;;;;;;;25.80;37.60;;;;;;1490255;78;810;-66
2022/08/09 04:26:56;;;;;;;;;;;25.80;37.60;;;;;;1496690;78;807;-66
2022/08/09 04:28:58;;;;;;;;;;;25.90;37.60;;;;;;1490604;78;816;-66
2022/08/09 04:30:59;;;;;;;;;;;25.80;37.60;;;;;;1491516;78;1168;-66
2022/08/09 04:33:01;;;;;;;;;;;25.80;37.60;;;;;;1494233;78;807;-67
2022/08/09 04:35:04;;;;;;;;;;;25.80;37.60;;;;;;1494051;78;776;-66
2022/08/09 04:37:06;;;;;;;;;;;25.90;37.70;;;;;;1493176;78;792;-65
2022/08/09 04:39:08;;;;;;;;;;;25.80;37.70;;;;;;1488713;78;756;-67
2022/08/09 04:41:10;;;;;;;;;;;25.90;37.60;;;;;;1492572;78;1208;-66
2022/08/09 04:43:12;;;;;;;;;;;25.80;37.70;;;;;;1494026;78;765;-65
2022/08/09 04:45:15;;;;;;;;;;;25.90;37.60;;;;;;1459678;80;739;-65
2022/08/09 04:47:17;;;;;;;;;;;25.90;37.60;;;;;;1493623;78;943;-66
2022/08/09 04:49:18;;;;;;;;;;;25.90;37.60;;;;;;1486660;78;736;-66
2022/08/09 04:51:20;;;;;;;;;;;25.80;37.70;;;;;;1489117;78;1137;-65
2022/08/09 04:53:22;;;;;;;;;;;25.80;37.70;;;;;;1478036;78;1945;-65
2022/08/09 04:55:24;;;;;;;;;;;25.80;37.70;;;;;;1483421;78;764;-65
2022/08/09 04:57:26;;;;;;;;;;;25.80;37.70;;;;;;1492764;78;732;-65
2022/08/09 04:59:28;;;;;;;;;;;25.80;37.80;;;;;;1488044;78;687;-66
2022/08/09 05:01:30;;;;;;;;;;;25.90;37.60;;;;;;1485811;78;1161;-67
2022/08/09 05:03:32;;;;;;;;;;;25.90;37.70;;;;;;1483627;78;760;-63
2022/08/09 05:05:33;;;;;;;;;;;25.90;37.60;;;;;;1484405;78;817;-64
2022/08/09 05:07:35;;;;;;;;;;;25.90;37.70;;;;;;1483465;78;748;-66
2022/08/09 05:09:37;;;;;;;;;;;25.80;37.60;;;;;;1485094;78;638;-67
2022/08/09 05:11:39;;;;;;;;;;;25.80;37.70;;;;;;1490803;78;1139;-67
2022/08/09 05:13:41;;;;;;;;;;;25.80;37.70;;;;;;1492191;78;1926;-66
2022/08/09 05:15:43;;;;;;;;;;;25.80;37.80;;;;;;1480619;78;807;-66
2022/08/09 05:17:45;;;;;;;;;;;25.90;37.70;;;;;;1490242;78;812;-66
2022/08/09 05:19:47;;;;;;;;;;;25.80;37.70;;;;;;1483268;78;816;-66
2022/08/09 05:21:49;;;;;;;;;;;25.90;37.70;;;;;;1478839;78;1201;-66
2022/08/09 05:23:51;;;;;;;;;;;25.80;37.80;;;;;;1484060;78;796;-66
2022/08/09 05:25:53;;;;;;;;;;;25.90;37.70;;;;;;1486241;78;767;-66
2022/08/09 05:27:56;;;;;;;;;;;25.90;37.80;;;;;;1489288;78;779;-67
2022/08/09 05:29:58;;;;;;;;;;;25.90;37.80;;;;;;1483601;78;779;-67
2022/08/09 05:32:00;;;;;;;;;;;25.90;37.80;;;;;;1484295;78;1154;-66
2022/08/09 05:34:02;;;;;;;;;;;25.90;37.80;;;;;;1483749;78;1938;-65
2022/08/09 05:36:04;;;;;;;;;;;25.90;37.80;;;;;;1493725;78;829;-66
2022/08/09 05:38:06;;;;;;;;;;;26.00;38.30;;;;;;1482252;78;1525;-65
2022/08/09 05:40:08;;;;;;;;;;;26.00;38.30;;;;;;1484123;78;742;-65
2022/08/09 05:42:12;;;;;;;;;;;26.00;38.30;;;;;;1483781;78;1137;-65
2022/08/09 05:44:14;;;;;;;;;;;26.00;38.30;;;;;;1486455;78;720;-66
2022/08/09 05:46:16;;;;;;;;;;;26.00;38.30;;;;;;1483726;78;778;-67
2022/08/09 05:48:18;;;;;;;;;;;26.00;38.30;;;;;;1483910;78;652;-66
2022/08/09 05:50:24;;;;;;;;;;;26.00;38.20;;;;;;1483780;78;696;-66
2022/08/09 05:52:26;;;;;;;;;;;26.10;38.20;;;;;;1483857;78;1142;-67
2022/08/09 05:54:28;;;;;;;;;;;26.00;38.20;;;;;;1483658;78;1942;-66
2022/08/09 05:56:30;;;;;;;;;;;26.00;38.20;;;;;;1483927;78;814;-65
2022/08/09 05:58:31;;;;;;;;;;;26.10;38.10;;;;;;1496687;78;787;-66
2022/08/09 06:00:33;;;;;;;;;;;26.10;38.20;;;;;;1483883;78;737;-65
2022/08/09 06:02:35;;;;;;;;;;;26.10;38.30;;;;;;1484302;78;1098;-67
2022/08/09 06:04:37;;;;;;;;;;;26.10;38.20;;;;;;1483446;78;661;-66
2022/08/09 06:06:39;;;;;;;;;;;26.20;38.10;;;;;;1484036;78;828;-67
2022/08/09 06:08:41;;;;;;;;;;;26.20;38.10;;;;;;1483524;78;753;-68
2022/08/09 06:10:43;;;;;;;;;;;26.30;38.10;;;;;;1473572;78;735;-67
2022/08/09 06:12:45;;;;;;;;;;;26.30;38.10;;;;;;1483541;78;1110;-66
2022/08/09 06:14:47;;;;;;;;;;;26.30;38.00;;;;;;1484029;78;1951;-66
2022/08/09 06:16:49;;;;;;;;;;;26.30;37.90;;;;;;1484019;78;795;-67
2022/08/09 06:18:51;;;;;;;;;;;26.30;37.90;;;;;;1483602;78;755;-66
2022/08/09 06:20:53;;;;;;;;;;;26.20;38.00;;;;;;1483248;78;1146;-65
2022/08/09 06:22:55;;;;;;;;;;;26.30;38.00;;;;;;1483595;78;660;-66
2022/08/09 06:24:57;;;;;;;;;;;26.20;37.90;;;;;;1486315;78;692;-67
2022/08/09 06:26:59;;;;;;;;;;;26.30;37.90;;;;;;1483766;78;754;-65
2022/08/09 06:29:01;;;;;;;;;;;26.30;37.90;;;;;;1485247;78;655;-66
2022/08/09 06:31:03;;;;;;;;;;;26.30;38.00;;;;;;1492870;78;1184;-66
2022/08/09 06:33:05;;;;;;;;;;;26.30;38.10;;;;;;1484014;78;722;-66
2022/08/09 06:35:08;;;;;;;;;;;26.30;38.00;;;;;;1484800;78;1940;-66
2022/08/09 06:37:10;;;;;;;;;;;26.30;37.80;;;;;;1484141;78;761;-66
2022/08/09 06:39:12;;;;;;;;;;;26.40;37.80;;;;;;1489398;78;789;-67
2022/08/09 06:41:15;;;;;;;;;;;26.30;37.80;;;;;;1496068;78;1257;-67
2022/08/09 06:43:17;;;;;;;;;;;26.40;37.80;;;;;;1482315;78;757;-71
2022/08/09 06:45:19;;;;;;;;;;;26.40;37.90;;;;;;1483168;78;730;-66
2022/08/09 06:47:21;;;;;;;;;;;26.40;37.80;;;;;;1487233;78;734;-69
2022/08/09 06:49:24;;;;;;;;;;;26.40;37.90;;;;;;1483876;78;744;-68
2022/08/09 06:51:25;;;;;;;;;;;26.40;37.60;;;;;;1483497;78;1176;-68
2022/08/09 06:53:27;;;;;;;;;;;26.40;37.70;;;;;;1483362;78;679;-69
2022/08/09 06:55:31;;;;;;;;;;;26.20;37.80;;;;;;1486001;78;2111;-69
2022/08/09 06:57:33;;;;;;;;;;;26.20;37.90;;;;;;1493211;78;1846;-67
2022/08/09 06:59:35;;;;;;;;;;;26.20;38.00;;;;;;1492538;78;727;-69
2022/08/09 07:01:37;;;;;;;;;;;26.20;38.10;;;;;;1483910;78;1181;-69
2022/08/09 07:03:38;;;;;;;;;;;26.30;38.20;;;;;;1487826;78;813;-68
2022/08/09 07:05:40;;;;;;;;;;;26.20;38.20;;;;;;1498594;78;796;-66
2022/08/09 07:07:43;;;;;;;;;;;26.30;38.20;;;;;;1492638;78;719;-64
2022/08/09 07:09:45;;;;;;;;;;;26.40;38.10;;;;;;1488716;78;814;-66
2022/08/09 07:11:47;;;;;;;;;;;26.30;38.20;;;;;;1495877;78;1153;-66
2022/08/09 07:13:49;;;;;;;;;;;26.40;38.10;;;;;;1501032;78;588;-66
2022/08/09 07:15:50;;;;;;;;;;;26.30;38.10;;;;;;1488173;78;1952;-64
2022/08/09 07:17:52;;;;;;;;;;;26.30;37.90;;;;;;1495561;78;706;-67
2022/08/09 07:19:54;;;;;;;;;;;26.20;38.10;;;;;;1497815;78;765;-66
2022/08/09 07:21:56;;;;;;;;;;;26.20;38.10;;;;;;1492455;78;1149;-66
2022/08/09 07:23:58;;;;;;;;;;;26.20;38.30;;;;;;1500573;78;763;-66
2022/08/09 07:26:02;;;;;;;;;;;26.10;38.30;;;;;;1479556;78;762;-66
2022/08/09 07:28:04;;;;;;;;;;;26.10;38.40;;;;;;1486408;78;782;-67
2022/08/09 07:30:07;;;;;;;;;;;26.00;38.40;;;;;;1486544;78;1516;-66
2022/08/09 07:32:08;;;;;;;;;;;26.00;38.50;;;;;;1490198;78;1208;-66
2022/08/09 07:34:10;;;;;;;;;;;26.10;38.60;;;;;;1484109;78;1942;-67
2022/08/09 07:36:13;;;;;;;;;;;26.00;38.50;;;;;;1492150;78;671;-66
2022/08/09 07:38:15;;;;;;;;;;;26.00;38.60;;;;;;1499732;77;733;-66
2022/08/09 07:40:17;;;;;;;;;;;26.00;38.60;;;;;;1496864;78;735;-66
2022/08/09 07:42:22;;;;;;;;;;;26.00;38.60;;;;;;1493511;78;1168;-66
2022/08/09 07:44:23;;;;;;;;;;;26.10;38.60;;;;;;1500894;78;1704;-66
2022/08/09 07:46:25;;;;;;;;;;;26.00;38.70;;;;;;1501167;78;742;-67
2022/08/09 07:48:26;;;;;;;;;;;26.00;38.70;;;;;;1497586;78;742;-66
2022/08/09 07:50:28;;;;;;;;;;;26.00;38.80;;;;;;1500740;78;650;-66
2022/08/09 07:52:30;;;;;;;;;;;26.00;38.80;;;;;;1509785;74;2083;-67
2022/08/09 07:54:33;;;;;;;;;;;26.00;38.90;;;;;;1570057;75;1934;-68
2022/08/09 07:56:35;;;;;;;;;;;26.00;38.80;;;;;;1569387;74;670;-67
2022/08/09 07:58:37;;;;;;;;;;;26.00;39.10;;;;;;1572554;74;726;-67
2022/08/09 08:00:39;;;;;;;;;;;26.10;39.10;;;;;;1575453;74;727;-67
2022/08/09 08:02:41;;;;;;;;;;;26.20;38.80;;;;;;1553299;75;1190;-66
2022/08/09 08:04:43;;;;;;;;;;;26.30;38.70;;;;;;1555197;75;679;-66
2022/08/09 08:06:45;;;;;;;;;;;26.20;38.80;;;;;;1557528;75;721;-67
2022/08/09 08:08:47;;;;;;;;;;;26.30;38.60;;;;;;1550985;75;719;-69
2022/08/09 08:10:49;;;;;;;;;;;26.30;38.50;;;;;;1556531;75;669;-66
2022/08/09 08:12:51;;;;;;;;;;;26.20;38.60;;;;;;1545845;75;1214;-67
2022/08/09 08:14:53;;;;;;;;;;;26.20;38.60;;;;;;1552384;76;1928;-69
2022/08/09 08:16:54;;;;;;;;;;;26.10;38.70;;;;;;1551025;76;721;-68
2022/08/09 08:18:56;;;;;;;;;;;26.10;38.70;;;;;;1546392;75;743;-69
2022/08/09 08:20:58;;;;;;;;;;;26.20;38.70;;;;;;1554006;75;838;-69
2022/08/09 08:23:01;;;;;;;;;;;26.20;38.70;;;;;;1546326;75;1086;-66
2022/08/09 08:25:03;;;;;;;;;;;26.20;39.00;;;;;;1548785;75;719;-67
2022/08/09 08:27:05;;;;;;;;;;;26.30;39.10;;;;;;1540323;76;1445;-67
2022/08/09 08:29:07;;;;;;;;;;;26.30;39.20;;;;;;1548252;75;746;-67
2022/08/09 08:31:09;;;;;;;;;;;26.30;39.20;;;;;;1549134;75;728;-68
2022/08/09 08:33:11;;;;;;;;;;;26.40;39.00;;;;;;1555635;75;1170;-67
2022/08/09 08:35:13;;;;;;;;;;;26.40;38.90;;;;;;1544514;75;1918;-68
2022/08/09 08:37:15;;;;;;;;;;;26.40;38.70;;;;;;1550009;75;734;-68
2022/08/09 08:39:16;;;;;;;;;;;26.40;38.70;;;;;;1545229;76;765;-69
2022/08/09 08:41:19;;;;;;;;;;;26.40;38.80;;;;;;1545285;76;1173;-67
2022/08/09 08:43:22;;;;;;;;;;;26.30;39.10;;;;;;1543817;76;709;-68
2022/08/09 08:45:26;;;;;;;;;;;26.40;39.20;;;;;;1558894;75;744;-70
2022/08/09 08:47:28;;;;;;;;;;;26.30;39.20;;;;;;1542942;76;635;-69
2022/08/09 08:49:31;;;;;;;;;;;26.30;39.20;;;;;;1534483;76;644;-68
2022/08/09 08:51:33;;;;;;;;;;;26.40;39.10;;;;;;1547749;75;1152;-67
2022/08/09 08:53:34;;;;;;;;;;;26.50;38.90;;;;;;1516651;77;802;-67
2022/08/09 08:55:36;;;;;;;;;;;26.40;38.80;;;;;;1485657;79;1930;-68
2022/08/09 08:57:38;;;;;;;;;;;26.40;38.70;;;;;;1482189;79;586;-67
2022/08/09 08:59:40;;;;;;;;;;;26.30;38.60;;;;;;1489234;78;745;-68
2022/08/09 09:01:43;;;;;;;;;;;26.30;38.60;;;;;;1489449;78;1178;-67
2022/08/09 09:03:44;;;;;;;;;;;26.30;38.60;;;;;;1483591;79;716;-68
2022/08/09 09:05:47;;;;;;;;;;;26.30;38.50;;;;;;1494439;78;712;-67
2022/08/09 09:07:51;;;;;;;;;;;26.30;38.40;;;;;;1509741;77;718;-68
2022/08/09 09:09:54;;;;;;;;;;;26.20;38.40;;;;;;1516088;77;764;-69
2022/08/09 09:11:56;;;;;;;;;;;26.20;38.40;;;;;;1514883;77;1122;-68
2022/08/09 09:13:57;;;;;;;;;;;26.20;38.40;;;;;;1509042;77;814;-69
2022/08/09 09:15:59;;;;;;;;;;;26.20;38.40;;;;;;1514231;77;1937;-70
2022/08/09 09:18:01;;;;;;;;;;;26.20;38.40;;;;;;1510736;77;710;-71
2022/08/09 09:20:08;;;;;;;;;;;26.20;38.30;;;;;;1517246;77;795;-68
2022/08/09 09:22:12;;;;;;;;;;;26.30;38.30;;;;;;1515481;77;1723;-68
2022/08/09 09:24:14;;;;;;;;;;;26.20;38.30;;;;;;1513789;77;878;-68
2022/08/09 09:26:16;;;;;;;;;;;26.20;38.30;;;;;;1489314;78;737;-69
2022/08/09 09:28:19;;;;;;;;;;;26.20;38.30;;;;;;1494342;78;844;-68
2022/08/09 09:30:21;;;;;;;;;;;26.20;38.40;;;;;;1495003;78;695;-67
2022/08/09 09:32:24;;;;;;;;;;;26.20;38.40;;;;;;1487395;78;1228;-66
2022/08/09 09:34:26;;;;;;;;;;;26.10;38.30;;;;;;1486191;78;728;-68
2022/08/09 09:36:29;;;;;;;;;;;26.20;38.40;;;;;;1490157;79;1950;-68
2022/08/09 09:38:40;;;;;;;;;;;26.20;38.40;;;;;;1491999;78;711;-69
2022/08/09 09:40:43;;;;;;;;;;;26.20;38.30;;;;;;1542152;75;669;-66
2022/08/09 09:42:55;;;;;;;;;;;26.10;38.30;;;;;;1544568;75;1099;-69
2022/08/09 09:44:57;;;;;;;;;;;26.10;38.30;;;;;;1541020;75;694;-68
2022/08/09 09:47:09;;;;;;;;;;;26.10;38.20;;;;;;1508936;77;762;-67
2022/08/09 09:49:11;;;;;;;;;;;26.10;38.20;;;;;;1505494;77;671;-67
2022/08/09 09:51:15;;;;;;;;;;;26.20;38.20;;;;;;1518488;77;692;-66
2022/08/09 09:53:18;;;;;;;;;;;26.10;38.20;;;;;;1510645;77;1920;-68
2022/08/09 09:55:20;;;;;;;;;;;26.10;38.10;;;;;;1490563;78;1917;-68
2022/08/09 09:57:23;;;;;;;;;;;26.10;38.00;;;;;;1485204;78;723;-70
2022/08/09 09:59:26;;;;;;;;;;;26.00;38.10;;;;;;1486024;78;767;-69
2022/08/09 10:01:28;;;;;;;;;;;26.00;38.00;;;;;;1487152;78;1175;-68
2022/08/09 10:03:41;;;;;;;;;;;26.00;37.90;;;;;;1486295;78;763;-69
2022/08/09 10:05:59;;;;;;;;;;;26.00;37.80;;;;;;1490201;78;829;-71
2022/08/09 10:08:03;;;;;;;;;;;26.00;37.80;;;;;;1477757;78;769;-67
2022/08/09 10:10:05;;;;;;;;;;;26.10;37.80;;;;;;1490298;78;1504;-68
2022/08/09 10:12:07;;;;;;;;;;;26.00;37.70;;;;;;1486843;78;1129;-68
2022/08/09 10:14:10;;;;;;;;;;;26.00;37.70;;;;;;1485534;78;759;-67
2022/08/09 10:16:12;;;;;;;;;;;26.00;37.80;;;;;;1478854;79;1939;-68
2022/08/09 10:18:14;;;;;;;;;;;26.00;37.70;;;;;;1492933;78;1415;-69
2022/08/09 10:20:20;;;;;;;;;;;26.00;37.70;;;;;;1482750;79;820;-68
2022/08/09 10:22:30;;;;;;;;;;;26.10;37.60;;;;;;1483432;78;1217;-67
2022/08/09 10:24:32;;;;;;;;;;;26.00;37.50;;;;;;1486346;78;719;-67
2022/08/09 10:26:34;;;;;;;;;;;26.10;37.50;;;;;;1489446;78;737;-66
2022/08/09 10:28:36;;;;;;;;;;;26.00;37.50;;;;;;1485466;78;875;-71
2022/08/09 10:30:37;;;;;;;;;;;26.00;37.50;;;;;;1486239;78;706;-68
2022/08/09 10:32:39;;;;;;;;;;;26.00;37.40;;;;;;1490736;78;1200;-67
2022/08/09 10:34:41;;;;;;;;;;;26.10;37.40;;;;;;1487204;78;801;-69
2022/08/09 10:36:43;;;;;;;;;;;26.00;37.40;;;;;;1486404;78;1939;-66
2022/08/09 10:38:46;;;;;;;;;;;26.10;37.40;;;;;;1501216;78;798;-69
2022/08/09 10:40:48;;;;;;;;;;;26.00;37.30;;;;;;1492273;78;744;-69
2022/08/09 10:42:49;;;;;;;;;;;26.10;37.30;;;;;;1494373;78;1143;-71
2022/08/09 10:44:56;;;;;;;;;;;26.00;37.30;;;;;;1488313;78;822;-68
2022/08/09 10:47:09;;;;;;;;;;;26.00;37.30;;;;;;1484638;78;1820;-66
2022/08/09 10:49:24;;;;;;;;;;;26.00;37.30;;;;;;1490144;78;1829;-67
2022/08/09 10:51:34;;;;;;;;;;;26.00;37.10;;;;;;1492837;78;1172;-68
2022/08/09 10:53:40;;;;;;;;;;;26.00;37.00;;;;;;1484822;79;1781;-68
2022/08/09 10:55:42;;;;;;;;;;;26.10;37.00;;;;;;1477067;78;1935;-66
2022/08/09 10:57:44;;;;;;;;;;;26.10;37.00;;;;;;1485686;78;816;-67
2022/08/09 10:59:45;;;;;;;;;;;26.10;36.50;;;;;;1480412;78;741;-66
2022/08/09 11:01:48;;;;;;;;;;;26.00;36.10;;;;;;1485681;79;1124;-68
2022/08/09 11:04:09;;;;;;;;;;;25.90;35.30;;;;;;1511998;77;724;-66
2022/08/09 11:06:23;;;;;;;;;;;26.00;36.50;;;;;;1484136;78;680;-66
2022/08/09 11:08:41;;;;;;;;;;;25.90;36.20;;;;;;1484543;78;765;-65
2022/08/09 11:10:45;;;;;;;;;;;25.90;34.70;;;;;;1486177;78;786;-67
2022/08/09 11:12:48;;;;;;;;;;;25.80;34.50;;;;;;1483425;78;1176;-63
2022/08/09 11:14:54;;;;;;;;;;;25.80;35.30;;;;;;1473745;78;1478;-67
2022/08/09 11:16:56;;;;;;;;;;;25.70;35.50;;;;;;1484101;78;1932;-65
2022/08/09 11:18:58;;;;;;;;;;;25.80;34.20;;;;;;1508954;77;703;-66
2022/08/09 11:21:00;;;;;;;;;;;25.70;34.70;;;;;;1490980;78;877;-66
2022/08/09 11:23:01;;;;;;;;;;;25.70;34.40;;;;;;1492373;77;1094;-69
2022/08/09 11:25:04;;;;;;;;;;;25.80;34.30;;;;;;1480603;78;782;-67
2022/08/09 11:27:26;;;;;;;;;;;25.70;34.10;;;;;;1480298;78;737;-65
2022/08/09 11:29:46;;;;;;;;;;;25.70;34.40;;;;;;1494036;78;1382;-67
2022/08/09 11:31:48;;;;;;;;;;;25.70;33.90;;;;;;1518583;77;1203;-65
2022/08/09 11:33:50;;;;;;;;;;;25.70;34.00;;;;;;1503118;77;663;-66
2022/08/09 11:35:56;;;;;;;;;;;25.70;34.10;;;;;;1513478;77;1924;-64
2022/08/09 11:37:58;;;;;;;;;;;25.70;34.50;;;;;;1508288;77;778;-63
2022/08/09 11:40:04;;;;;;;;;;;25.70;34.50;;;;;;1484472;78;719;-65
2022/08/09 11:42:09;;;;;;;;;;;25.70;34.30;;;;;;1482332;78;1144;-65
2022/08/09 11:44:11;;;;;;;;;;;25.70;34.50;;;;;;1483998;78;724;-65
2022/08/09 11:46:13;;;;;;;;;;;25.70;32.90;;;;;;1483549;78;818;-65
2022/08/09 11:48:16;;;;;;;;;;;25.70;33.90;;;;;;1482325;79;756;-64
2022/08/09 11:50:18;;;;;;;;;;;25.70;33.90;;;;;;1490771;78;729;-63
2022/08/09 11:52:24;;;;;;;;;;;25.80;33.40;;;;;;1488277;79;1160;-68
2022/08/09 11:54:24;;;;;;;;;;;25.80;33.90;;;;;;1514037;77;1481;-65
2022/08/09 11:56:25;;;;;;;;;;;25.80;34.40;;;;;;1483932;78;1938;-67
2022/08/09 11:58:30;;;;;;;;;;;25.80;34.90;;;;;;1496141;78;781;-66
2022/08/09 12:00:33;;;;;;;;;;;25.80;35.00;;;;;;1488676;78;911;-65
2022/08/09 12:02:36;;;;;;;;;;;25.70;35.10;;;;;;1485725;79;1184;-65
2022/08/09 12:04:38;;;;;;;;;;;25.70;35.00;;;;;;1514522;77;710;-66
2022/08/09 12:06:40;;;;;;;;;;;25.70;34.60;;;;;;1485762;78;761;-66
2022/08/09 12:08:46;;;;;;;;;;;25.80;35.10;;;;;;1473420;80;1179;-63
2022/08/09 12:10:49;;;;;;;;;;;25.70;34.50;;;;;;1550177;75;1453;-65
2022/08/09 12:12:51;;;;;;;;;;;25.70;35.10;;;;;;1542553;75;1164;-67